Rock City Falls, New York
Current Conditions -  °F | °C
As of 8:55 AM on Friday 24 Oct 2014 (Local Time) from KNY0 Reporting Station
Overcast Overcast  
Wind Chill: 39°   Ceiling: 2300
Heat Index: 43°   Visibility: 10mi
Dew Point: 42°   Wind: 6mph
Humidity: 95%   Direction: 280°W
Pressure: 29.85"   Gusts: NA
Location:  43.06°N, 73.92°W
Report Text: KNY0 241255Z AUTO 28005KT 10SM OVC023 06/05 A2985 RMK AO2 T00610053
Loading
Personal Weather Stations






























Interactive Weather Map
Tropical Storm Tracking
New forecast layout! Learn more

10-Day Weather Forecast

Advertisements
Track Severe Weather on mobile